Burlington, North Dakota
Current Conditions -  °F | °C
As of 4:06 AM on Sunday 23 Nov 2014 (Local Time) from KMOT Reporting Station
Overcast Overcast  
Wind Chill: 33°   Ceiling: 2300
Heat Index: 40°   Visibility: 10mi
Dew Point: 31°   Wind: 10mph
Humidity: 70%   Direction: 240°WSW
Pressure: 29.31"   Gusts: NA
Location:  48.28°N, 101.43°W
Report Text: KMOT 231006Z AUTO 24009KT 10SM BKN023 OVC030 04/M01 A2931 RMK AO2 T00441006
Loading
Personal Weather Stations






























Interactive Weather Map New forecast layout! Learn more

10-Day Weather Forecast

Advertisements
Track Severe Weather on mobile